Airport View

Enter AWOS ICAO identifier for current METAR.

ex. KFNL

KLXT 031553Z AUTO 05007KT 10SM CLR 30/22 A3004 RMK AO2 SLP161 T03000222 $

3 Jul 2020 16:07

Frequency: 124.175

Phone: 816-347-9807

Other Area AWOS: KMKC - KOJC - KLRY - KGPH

TAF KMKC 031120Z 0312/0412 07007KT P6SM SCT050 FM032100 06005KT P6SM VCSH BKN050 FM040000 07050KT P6SM SCT050